createdAt,value
2019-06-15T00:02:10.832Z,6.07
2019-06-15T00:07:29.390Z,5.37
2019-06-15T00:12:48.028Z,5.97
2019-06-15T00:18:06.659Z,5.13
2019-06-15T00:23:25.312Z,5.43
2019-06-15T00:28:43.872Z,7.00
2019-06-15T00:34:02.460Z,7.13
2019-06-15T00:39:21.084Z,6.60
2019-06-15T00:44:39.723Z,7.67
2019-06-15T00:49:58.351Z,8.10
2019-06-15T00:55:16.996Z,7.53
2019-06-15T01:00:35.633Z,7.50
2019-06-15T01:05:54.202Z,9.53
2019-06-15T01:11:12.847Z,8.30
2019-06-15T01:16:31.597Z,7.90
2019-06-15T01:21:50.227Z,9.33
2019-06-15T01:27:09.683Z,9.90
2019-06-15T01:32:28.306Z,9.20
2019-06-15T01:37:46.861Z,10.67
2019-06-15T01:43:05.492Z,10.00
2019-06-15T01:48:24.131Z,10.13
2019-06-15T01:53:42.762Z,9.73
2019-06-15T01:59:01.394Z,11.00
2019-06-15T02:04:20.024Z,13.70
2019-06-15T02:09:38.599Z,12.23
2019-06-15T02:14:57.235Z,11.37
2019-06-15T02:20:16.988Z,11.70
2019-06-15T02:25:36.671Z,11.30
2019-06-15T02:30:55.870Z,11.37
2019-06-15T02:36:14.503Z,12.43
2019-06-15T02:41:33.967Z,12.30
2019-06-15T02:46:52.605Z,10.97
2019-06-15T02:52:11.330Z,11.17
2019-06-15T02:57:29.966Z,10.30
2019-06-15T03:02:48.587Z,9.80
2019-06-15T03:08:07.230Z,10.95
2019-06-15T03:13:26.965Z,9.60
2019-06-15T03:18:45.540Z,10.03
2019-06-15T03:24:04.695Z,10.90
2019-06-15T03:29:23.333Z,10.07
2019-06-15T03:34:41.967Z,12.43
2019-06-15T03:40:00.535Z,14.23
2019-06-15T03:45:19.197Z,16.03
2019-06-15T03:50:37.817Z,15.23
2019-06-15T03:55:56.448Z,13.13
2019-06-15T04:01:39.141Z,11.57
2019-06-15T04:06:57.780Z,10.87
2019-06-15T04:12:16.803Z,9.30
2019-06-15T04:17:35.432Z,7.77
2019-06-15T04:22:53.997Z,8.53
2019-06-15T04:28:12.754Z,8.70
2019-06-15T04:33:31.314Z,9.00
2019-06-15T04:38:49.958Z,9.27
2019-06-15T04:44:08.587Z,8.67
2019-06-15T04:49:27.236Z,9.60
2019-06-15T04:54:45.817Z,11.23
2019-06-15T05:00:07.383Z,8.90
2019-06-15T05:05:25.947Z,10.00
2019-06-15T05:10:44.882Z,11.10
2019-06-15T05:16:03.514Z,11.30
2019-06-15T05:21:22.194Z,15.40
2019-06-15T05:26:40.714Z,20.20
2019-06-15T05:31:59.343Z,25.50
2019-06-15T05:37:18.565Z,29.45
2019-06-15T05:42:37.214Z,30.07
2019-06-15T05:47:55.956Z,32.43
2019-06-15T05:53:14.597Z,33.57
2019-06-15T05:58:33.178Z,33.47
2019-06-15T06:10:06.574Z,31.07
2019-06-15T06:15:26.894Z,33.10
2019-06-15T06:20:45.467Z,37.13
2019-06-15T06:26:04.169Z,32.47
2019-06-15T06:31:22.775Z,32.23
2019-06-15T06:36:41.388Z,31.00
2019-06-15T06:42:00.285Z,32.37
2019-06-15T06:47:18.973Z,29.40
2019-06-15T06:52:37.635Z,29.57
2019-06-15T06:57:57.341Z,27.83
2019-06-15T07:03:16.120Z,29.07
2019-06-15T07:08:34.699Z,26.30
2019-06-15T07:13:53.267Z,24.73
2019-06-15T07:19:11.840Z,24.07
2019-06-15T07:24:30.327Z,21.17
2019-06-15T07:29:48.958Z,20.40
2019-06-15T07:35:08.986Z,15.50
2019-06-15T07:40:27.904Z,12.60
2019-06-15T07:45:46.823Z,10.93
2019-06-15T07:51:05.440Z,8.33
2019-06-15T07:56:24.057Z,7.20
2019-06-15T08:01:42.687Z,6.90
2019-06-15T08:07:01.313Z,5.40
2019-06-15T08:12:19.959Z,5.30
2019-06-15T08:17:38.676Z,4.40
2019-06-15T08:22:57.305Z,4.37
2019-06-15T08:28:15.926Z,4.10
2019-06-15T08:33:34.547Z,3.77
2019-06-15T08:38:53.210Z,4.17
2019-06-15T08:44:11.819Z,5.30
2019-06-15T08:49:30.437Z,4.90
2019-06-15T08:54:49.076Z,4.53
2019-06-15T09:05:19.514Z,3.83
2019-06-15T09:10:38.166Z,2.73
2019-06-15T09:15:56.891Z,3.00
2019-06-15T09:21:15.522Z,3.00
2019-06-15T09:26:34.159Z,2.90
2019-06-15T09:31:52.720Z,2.90
2019-06-15T09:37:11.265Z,2.70
2019-06-15T09:42:30.213Z,2.63
2019-06-15T09:47:48.843Z,2.70
2019-06-15T09:53:07.458Z,3.57
2019-06-15T09:58:26.097Z,4.00
2019-06-15T10:03:44.647Z,4.57
2019-06-15T10:09:03.575Z,6.17
2019-06-15T10:14:22.199Z,7.90
2019-06-15T10:19:40.778Z,12.33
2019-06-15T10:24:59.403Z,12.67
2019-06-15T10:30:18.259Z,10.97
2019-06-15T10:35:36.882Z,9.53
2019-06-15T10:40:55.444Z,9.03
2019-06-15T10:46:14.385Z,7.27
2019-06-15T10:51:33.009Z,6.93
2019-06-15T11:02:09.403Z,6.03
2019-06-15T11:07:28.033Z,4.95
2019-06-15T11:33:59.754Z,3.37
2019-06-15T11:39:18.826Z,3.75
2019-06-15T11:44:37.412Z,3.70
2019-06-15T11:49:56.360Z,2.27
2019-06-15T11:55:14.993Z,2.00
2019-06-15T12:00:41.247Z,2.20
2019-06-15T12:05:59.936Z,2.40
2019-06-15T12:11:19.452Z,2.10
2019-06-15T12:21:55.934Z,1.70
2019-06-15T12:27:14.557Z,1.80
2019-06-15T12:43:08.769Z,1.90
2019-06-15T12:48:27.405Z,1.93
2019-06-15T12:53:46.272Z,1.90
2019-06-15T12:59:04.916Z,2.27
2019-06-15T13:04:23.632Z,1.20
2019-06-15T13:09:42.263Z,1.53
2019-06-15T13:15:00.890Z,1.67
2019-06-15T13:20:19.930Z,2.00
2019-06-15T13:25:38.551Z,1.50
2019-06-15T13:30:57.199Z,1.97
2019-06-15T13:36:15.830Z,1.90
2019-06-15T13:41:34.387Z,1.63
2019-06-15T13:46:53.010Z,1.92
2019-06-15T13:52:11.639Z,2.13
2019-06-15T13:57:30.268Z,1.97
2019-06-15T14:02:48.887Z,2.10
2019-06-15T14:08:07.475Z,2.20
2019-06-15T14:13:26.042Z,2.40
2019-06-15T14:18:44.678Z,2.10
2019-06-15T14:24:03.300Z,2.37
2019-06-15T14:29:21.863Z,1.90
2019-06-15T14:34:40.509Z,2.07
2019-06-15T14:39:59.071Z,2.13
2019-06-15T14:45:18.335Z,2.17
2019-06-15T14:50:36.969Z,1.90
2019-06-15T14:55:56.564Z,2.07
2019-06-15T15:01:16.776Z,1.80
2019-06-15T15:06:36.888Z,1.90
2019-06-15T15:11:56.603Z,2.63
2019-06-15T15:17:17.238Z,2.57
2019-06-15T15:22:37.150Z,2.00
2019-06-15T15:27:57.117Z,2.30
2019-06-15T15:33:16.009Z,2.50
2019-06-15T15:38:36.183Z,2.43
2019-06-15T15:43:54.841Z,3.00
2019-06-15T15:49:16.081Z,2.93
2019-06-15T15:54:36.025Z,3.00
2019-06-15T15:59:56.341Z,2.67
2019-06-15T16:05:16.619Z,3.00
2019-06-15T16:10:37.411Z,2.17
2019-06-15T16:15:55.597Z,2.17
2019-06-15T16:21:16.668Z,2.43
2019-06-15T16:26:37.375Z,2.40
2019-06-15T16:31:56.439Z,2.40
2019-06-15T16:37:16.980Z,2.47
2019-06-15T16:42:36.557Z,2.17
2019-06-15T16:47:55.279Z,2.40
2019-06-15T16:53:16.655Z,2.20
2019-06-15T16:58:36.324Z,2.57
2019-06-15T17:03:56.880Z,2.45
2019-06-15T17:09:16.895Z,2.80
2019-06-15T17:14:36.451Z,3.27
2019-06-15T17:19:56.953Z,2.72
2019-06-15T17:25:16.596Z,2.63
2019-06-15T17:30:37.058Z,2.87
2019-06-15T17:36:02.523Z,2.62
2019-06-15T17:41:17.438Z,3.00
2019-06-15T17:46:36.531Z,2.80
2019-06-15T17:51:55.146Z,3.40
2019-06-15T17:57:13.773Z,3.15
2019-06-15T18:02:32.390Z,5.42
2019-06-15T18:07:50.936Z,3.72
2019-06-15T18:13:09.574Z,3.10
2019-06-15T18:18:28.141Z,2.70
2019-06-15T18:23:47.082Z,2.98
2019-06-15T18:29:05.635Z,3.22
2019-06-15T18:34:24.201Z,2.70
2019-06-15T18:39:42.768Z,2.98
2019-06-15T18:45:01.459Z,2.77
2019-06-15T18:50:26.665Z,2.67
2019-06-15T18:55:47.400Z,2.87
2019-06-15T19:01:06.996Z,2.80
2019-06-15T19:06:26.523Z,3.98
2019-06-15T19:11:45.139Z,3.80
2019-06-15T19:17:05.924Z,4.20
2019-06-15T19:22:26.994Z,3.87
2019-06-15T19:27:44.497Z,4.17
2019-06-15T19:33:03.672Z,4.50
2019-06-15T19:38:22.257Z,3.80
2019-06-15T19:43:40.891Z,4.80
2019-06-15T19:48:59.451Z,4.40
2019-06-15T19:54:18.016Z,4.50
2019-06-15T19:59:36.717Z,4.27
2019-06-15T20:05:03.173Z,4.33
2019-06-15T20:10:17.333Z,5.13
2019-06-15T20:15:37.646Z,5.13
2019-06-15T20:20:56.466Z,5.50
2019-06-15T20:26:16.082Z,5.17
2019-06-15T20:31:36.975Z,5.50
2019-06-15T20:36:55.258Z,5.47
2019-06-15T20:42:16.276Z,5.70
2019-06-15T20:47:34.341Z,5.00
2019-06-15T20:52:53.054Z,4.60
2019-06-15T20:58:12.044Z,5.80
2019-06-15T21:03:30.593Z,5.90
2019-06-15T21:08:49.281Z,5.53
2019-06-15T21:14:07.933Z,5.80
2019-06-15T21:19:26.490Z,6.80
2019-06-15T21:24:46.379Z,6.43
2019-06-15T21:30:09.167Z,6.23
2019-06-15T21:35:27.720Z,6.20
2019-06-15T21:40:47.552Z,7.07
2019-06-15T21:46:06.606Z,8.13
2019-06-15T21:51:27.021Z,6.77
2019-06-15T21:56:45.489Z,6.50
2019-06-15T22:02:06.767Z,6.80
2019-06-15T22:07:26.141Z,6.53
2019-06-15T22:12:44.824Z,7.87
2019-06-15T22:18:03.458Z,9.10
2019-06-15T22:23:22.099Z,9.00
2019-06-15T22:28:40.742Z,8.37
2019-06-15T22:33:59.389Z,7.50
2019-06-15T22:39:18.045Z,7.80
2019-06-15T22:44:37.234Z,8.73
2019-06-15T22:49:56.387Z,8.50
2019-06-15T22:55:16.609Z,8.90
2019-06-15T23:00:37.553Z,9.00
2019-06-15T23:05:57.188Z,7.87
2019-06-15T23:11:17.553Z,8.20
2019-06-15T23:16:36.947Z,6.93
2019-06-15T23:21:57.233Z,7.87
2019-06-15T23:27:16.589Z,7.97
2019-06-15T23:32:35.222Z,7.80
2019-06-15T23:37:55.935Z,6.90
2019-06-15T23:43:16.564Z,6.40
2019-06-15T23:48:36.461Z,6.77
2019-06-15T23:53:57.141Z,8.10
2019-06-15T23:59:17.734Z,7.37
